sensor_id;sensor_type;location;lat;lon;timestamp;temperature;humidity
42187;DHT22;27858;51.414;0.018;2023-10-08T00:01:13;17.70;99.90
42187;DHT22;27858;51.414;0.018;2023-10-08T00:03:43;17.70;99.90
42187;DHT22;27858;51.414;0.018;2023-10-08T00:06:22;17.70;99.90
42187;DHT22;27858;51.414;0.018;2023-10-08T00:08:51;17.70;99.90
42187;DHT22;27858;51.414;0.018;2023-10-08T00:11:39;17.70;99.90
42187;DHT22;27858;51.414;0.018;2023-10-08T00:14:07;17.70;99.90
42187;DHT22;27858;51.414;0.018;2023-10-08T00:16:44;17.70;99.90
42187;DHT22;27858;51.414;0.018;2023-10-08T00:19:16;17.60;99.90
42187;DHT22;27858;51.414;0.018;2023-10-08T00:21:47;17.60;99.90
42187;DHT22;27858;51.414;0.018;2023-10-08T00:24:15;17.70;99.90
42187;DHT22;27858;51.414;0.018;2023-10-08T00:26:42;17.60;99.90
42187;DHT22;27858;51.414;0.018;2023-10-08T00:29:10;17.60;99.90
42187;DHT22;27858;51.414;0.018;2023-10-08T00:31:44;17.60;99.90
42187;DHT22;27858;51.414;0.018;2023-10-08T00:34:14;17.60;99.90
42187;DHT22;27858;51.414;0.018;2023-10-08T00:36:44;17.60;99.90
42187;DHT22;27858;51.414;0.018;2023-10-08T00:39:17;17.60;99.90
42187;DHT22;27858;51.414;0.018;2023-10-08T00:41:52;17.60;99.90
42187;DHT22;27858;51.414;0.018;2023-10-08T00:44:40;17.60;99.90
42187;DHT22;27858;51.414;0.018;2023-10-08T00:47:21;17.60;99.90
42187;DHT22;27858;51.414;0.018;2023-10-08T00:49:56;17.60;99.90
42187;DHT22;27858;51.414;0.018;2023-10-08T00:52:37;17.60;99.90
42187;DHT22;27858;51.414;0.018;2023-10-08T00:55:08;17.50;99.90
42187;DHT22;27858;51.414;0.018;2023-10-08T00:57:42;17.60;99.90
42187;DHT22;27858;51.414;0.018;2023-10-08T01:00:14;17.50;99.90
42187;DHT22;27858;51.414;0.018;2023-10-08T01:02:49;17.60;99.90
42187;DHT22;27858;51.414;0.018;2023-10-08T01:05:23;17.50;99.90
42187;DHT22;27858;51.414;0.018;2023-10-08T01:08:11;17.50;99.90
42187;DHT22;27858;51.414;0.018;2023-10-08T01:10:52;17.50;99.90
42187;DHT22;27858;51.414;0.018;2023-10-08T01:13:29;17.50;99.90
42187;DHT22;27858;51.414;0.018;2023-10-08T01:16:02;17.60;99.90
42187;DHT22;27858;51.414;0.018;2023-10-08T01:18:29;17.50;99.90
42187;DHT22;27858;51.414;0.018;2023-10-08T01:20:59;17.50;99.90
42187;DHT22;27858;51.414;0.018;2023-10-08T01:23:34;17.60;99.90
42187;DHT22;27858;51.414;0.018;2023-10-08T01:26:01;17.60;99.90
42187;DHT22;27858;51.414;0.018;2023-10-08T01:28:39;17.50;99.90
42187;DHT22;27858;51.414;0.018;2023-10-08T01:31:07;17.60;99.90
42187;DHT22;27858;51.414;0.018;2023-10-08T01:33:34;17.60;99.90
42187;DHT22;27858;51.414;0.018;2023-10-08T01:36:07;17.60;99.90
42187;DHT22;27858;51.414;0.018;2023-10-08T01:38:39;17.60;99.90
42187;DHT22;27858;51.414;0.018;2023-10-08T01:41:10;17.60;99.90
42187;DHT22;27858;51.414;0.018;2023-10-08T01:43:46;17.60;99.90
42187;DHT22;27858;51.414;0.018;2023-10-08T01:46:13;17.60;99.90
42187;DHT22;27858;51.414;0.018;2023-10-08T01:48:42;17.60;99.90
42187;DHT22;27858;51.414;0.018;2023-10-08T01:51:12;17.60;99.90
42187;DHT22;27858;51.414;0.018;2023-10-08T01:53:48;17.60;99.90
42187;DHT22;27858;51.414;0.018;2023-10-08T01:56:15;17.60;99.90
42187;DHT22;27858;51.414;0.018;2023-10-08T01:58:44;17.60;99.90
42187;DHT22;27858;51.414;0.018;2023-10-08T02:01:19;17.60;99.90
42187;DHT22;27858;51.414;0.018;2023-10-08T02:03:46;17.60;99.90
42187;DHT22;27858;51.414;0.018;2023-10-08T02:06:13;17.50;99.90
42187;DHT22;27858;51.414;0.018;2023-10-08T02:08:41;17.50;99.90
42187;DHT22;27858;51.414;0.018;2023-10-08T02:11:10;17.50;99.90
42187;DHT22;27858;51.414;0.018;2023-10-08T02:13:37;17.50;99.90
42187;DHT22;27858;51.414;0.018;2023-10-08T02:16:04;17.50;99.90
42187;DHT22;27858;51.414;0.018;2023-10-08T02:18:31;17.50;99.90
42187;DHT22;27858;51.414;0.018;2023-10-08T02:21:00;17.50;99.90
42187;DHT22;27858;51.414;0.018;2023-10-08T02:23:27;17.40;99.90
42187;DHT22;27858;51.414;0.018;2023-10-08T02:25:56;17.40;99.90
42187;DHT22;27858;51.414;0.018;2023-10-08T02:28:24;17.40;99.90
42187;DHT22;27858;51.414;0.018;2023-10-08T02:30:52;17.40;99.90
42187;DHT22;27858;51.414;0.018;2023-10-08T02:33:19;17.30;99.90
42187;DHT22;27858;51.414;0.018;2023-10-08T02:35:49;17.30;99.90
42187;DHT22;27858;51.414;0.018;2023-10-08T02:38:21;17.30;99.90
42187;DHT22;27858;51.414;0.018;2023-10-08T02:40:48;17.20;99.90
42187;DHT22;27858;51.414;0.018;2023-10-08T02:43:19;17.20;99.90
42187;DHT22;27858;51.414;0.018;2023-10-08T02:45:49;17.20;99.90
42187;DHT22;27858;51.414;0.018;2023-10-08T02:48:18;17.20;99.90
42187;DHT22;27858;51.414;0.018;2023-10-08T02:50:48;17.10;99.90
42187;DHT22;27858;51.414;0.018;2023-10-08T02:53:15;17.10;99.90
42187;DHT22;27858;51.414;0.018;2023-10-08T02:55:49;17.00;99.90
42187;DHT22;27858;51.414;0.018;2023-10-08T02:58:19;17.00;99.90
42187;DHT22;27858;51.414;0.018;2023-10-08T03:00:49;17.00;99.90
42187;DHT22;27858;51.414;0.018;2023-10-08T03:03:17;16.90;99.90
42187;DHT22;27858;51.414;0.018;2023-10-08T03:05:51;16.90;99.90
42187;DHT22;27858;51.414;0.018;2023-10-08T03:08:19;16.90;99.90
42187;DHT22;27858;51.414;0.018;2023-10-08T03:10:51;16.90;99.90
42187;DHT22;27858;51.414;0.018;2023-10-08T03:13:29;16.80;99.90
42187;DHT22;27858;51.414;0.018;2023-10-08T03:15:56;16.80;99.90
42187;DHT22;27858;51.414;0.018;2023-10-08T03:18:30;16.70;99.90
42187;DHT22;27858;51.414;0.018;2023-10-08T03:21:06;16.70;99.90
42187;DHT22;27858;51.414;0.018;2023-10-08T03:23:52;16.70;99.90
42187;DHT22;27858;51.414;0.018;2023-10-08T03:26:20;16.60;99.90
42187;DHT22;27858;51.414;0.018;2023-10-08T03:29:03;16.60;99.90
42187;DHT22;27858;51.414;0.018;2023-10-08T03:31:43;16.60;99.90
42187;DHT22;27858;51.414;0.018;2023-10-08T03:34:14;16.60;99.90
42187;DHT22;27858;51.414;0.018;2023-10-08T03:36:44;16.50;99.90
42187;DHT22;27858;51.414;0.018;2023-10-08T03:39:16;16.50;99.90
42187;DHT22;27858;51.414;0.018;2023-10-08T03:41:48;16.50;99.90
42187;DHT22;27858;51.414;0.018;2023-10-08T03:44:34;16.40;99.90
42187;DHT22;27858;51.414;0.018;2023-10-08T03:47:04;16.40;99.90
42187;DHT22;27858;51.414;0.018;2023-10-08T03:49:38;16.30;99.90
42187;DHT22;27858;51.414;0.018;2023-10-08T03:52:13;16.30;99.90
42187;DHT22;27858;51.414;0.018;2023-10-08T03:54:40;16.30;99.90
42187;DHT22;27858;51.414;0.018;2023-10-08T03:57:15;16.30;99.90
42187;DHT22;27858;51.414;0.018;2023-10-08T03:59:53;16.30;99.90
42187;DHT22;27858;51.414;0.018;2023-10-08T04:02:24;16.30;99.90
42187;DHT22;27858;51.414;0.018;2023-10-08T04:05:12;16.20;99.90
42187;DHT22;27858;51.414;0.018;2023-10-08T04:07:46;16.30;99.90
42187;DHT22;27858;51.414;0.018;2023-10-08T04:10:31;16.20;99.90
42187;DHT22;27858;51.414;0.018;2023-10-08T04:13:04;16.20;99.90
42187;DHT22;27858;51.414;0.018;2023-10-08T04:15:36;16.20;99.90
42187;DHT22;27858;51.414;0.018;2023-10-08T04:18:09;16.20;99.90
42187;DHT22;27858;51.414;0.018;2023-10-08T04:20:37;16.20;99.90
42187;DHT22;27858;51.414;0.018;2023-10-08T04:23:26;16.20;99.90
42187;DHT22;27858;51.414;0.018;2023-10-08T04:25:53;16.20;99.90
42187;DHT22;27858;51.414;0.018;2023-10-08T04:28:22;16.10;99.90
42187;DHT22;27858;51.414;0.018;2023-10-08T04:30:49;16.10;99.90
42187;DHT22;27858;51.414;0.018;2023-10-08T04:33:18;16.10;99.90
42187;DHT22;27858;51.414;0.018;2023-10-08T04:35:47;16.00;99.90
42187;DHT22;27858;51.414;0.018;2023-10-08T04:38:24;16.00;99.90
42187;DHT22;27858;51.414;0.018;2023-10-08T04:40:53;16.00;99.90
42187;DHT22;27858;51.414;0.018;2023-10-08T04:43:22;16.00;99.90
42187;DHT22;27858;51.414;0.018;2023-10-08T04:46:02;16.00;99.90
42187;DHT22;27858;51.414;0.018;2023-10-08T04:48:35;16.00;99.90
42187;DHT22;27858;51.414;0.018;2023-10-08T04:51:04;16.00;99.90
42187;DHT22;27858;51.414;0.018;2023-10-08T04:53:32;16.00;99.90
42187;DHT22;27858;51.414;0.018;2023-10-08T04:56:04;16.00;99.90
42187;DHT22;27858;51.414;0.018;2023-10-08T04:58:40;15.90;99.90
42187;DHT22;27858;51.414;0.018;2023-10-08T05:01:08;15.90;99.90
42187;DHT22;27858;51.414;0.018;2023-10-08T05:03:48;15.80;99.90
42187;DHT22;27858;51.414;0.018;2023-10-08T05:06:28;15.80;99.90
42187;DHT22;27858;51.414;0.018;2023-10-08T05:09:07;15.80;99.90
42187;DHT22;27858;51.414;0.018;2023-10-08T05:11:51;15.70;99.90
42187;DHT22;27858;51.414;0.018;2023-10-08T05:14:20;15.70;99.90
42187;DHT22;27858;51.414;0.018;2023-10-08T05:17:03;15.70;99.90
42187;DHT22;27858;51.414;0.018;2023-10-08T05:19:37;15.70;99.90
42187;DHT22;27858;51.414;0.018;2023-10-08T05:22:12;15.70;99.90
42187;DHT22;27858;51.414;0.018;2023-10-08T05:25:08;15.60;99.90
42187;DHT22;27858;51.414;0.018;2023-10-08T05:27:45;15.60;99.90
42187;DHT22;27858;51.414;0.018;2023-10-08T05:30:17;15.60;99.90
42187;DHT22;27858;51.414;0.018;2023-10-08T05:33:08;15.60;99.90
42187;DHT22;27858;51.414;0.018;2023-10-08T05:36:13;15.60;99.90
42187;DHT22;27858;51.414;0.018;2023-10-08T05:38:55;15.60;99.90
42187;DHT22;27858;51.414;0.018;2023-10-08T05:41:43;15.60;99.90
42187;DHT22;27858;51.414;0.018;2023-10-08T05:44:33;15.60;99.90
42187;DHT22;27858;51.414;0.018;2023-10-08T05:47:15;15.60;99.90
42187;DHT22;27858;51.414;0.018;2023-10-08T05:49:44;15.60;99.90
42187;DHT22;27858;51.414;0.018;2023-10-08T05:52:23;15.60;99.90
42187;DHT22;27858;51.414;0.018;2023-10-08T05:54:59;15.60;99.90
42187;DHT22;27858;51.414;0.018;2023-10-08T05:57:45;15.60;99.90
42187;DHT22;27858;51.414;0.018;2023-10-08T06:00:19;15.50;99.90
42187;DHT22;27858;51.414;0.018;2023-10-08T06:03:11;15.50;99.90
42187;DHT22;27858;51.414;0.018;2023-10-08T06:06:03;15.50;99.90
42187;DHT22;27858;51.414;0.018;2023-10-08T06:08:41;15.40;99.90
42187;DHT22;27858;51.414;0.018;2023-10-08T06:11:27;15.30;99.90
42187;DHT22;27858;51.414;0.018;2023-10-08T06:14:23;15.40;99.90
42187;DHT22;27858;51.414;0.018;2023-10-08T06:17:16;15.30;99.90
42187;DHT22;27858;51.414;0.018;2023-10-08T06:20:11;15.40;99.90
42187;DHT22;27858;51.414;0.018;2023-10-08T06:22:44;15.40;99.90
42187;DHT22;27858;51.414;0.018;2023-10-08T06:25:12;15.40;99.90
42187;DHT22;27858;51.414;0.018;2023-10-08T06:27:50;15.50;99.90
42187;DHT22;27858;51.414;0.018;2023-10-08T06:30:22;15.50;99.90
42187;DHT22;27858;51.414;0.018;2023-10-08T06:32:52;15.50;99.90
42187;DHT22;27858;51.414;0.018;2023-10-08T06:35:23;15.50;99.90
42187;DHT22;27858;51.414;0.018;2023-10-08T06:37:52;15.60;99.90
42187;DHT22;27858;51.414;0.018;2023-10-08T06:40:22;15.50;99.90
42187;DHT22;27858;51.414;0.018;2023-10-08T06:43:07;15.60;99.90
42187;DHT22;27858;51.414;0.018;2023-10-08T06:45:51;15.60;99.90
42187;DHT22;27858;51.414;0.018;2023-10-08T06:48:22;15.60;99.90
42187;DHT22;27858;51.414;0.018;2023-10-08T06:50:53;15.60;99.90
42187;DHT22;27858;51.414;0.018;2023-10-08T06:53:37;15.60;99.90
42187;DHT22;27858;51.414;0.018;2023-10-08T06:56:06;15.60;99.90
42187;DHT22;27858;51.414;0.018;2023-10-08T06:58:39;15.60;99.90
42187;DHT22;27858;51.414;0.018;2023-10-08T07:01:13;15.60;99.90
42187;DHT22;27858;51.414;0.018;2023-10-08T07:03:48;15.70;99.90
42187;DHT22;27858;51.414;0.018;2023-10-08T07:06:18;15.70;99.90
42187;DHT22;27858;51.414;0.018;2023-10-08T07:09:01;15.70;99.90
42187;DHT22;27858;51.414;0.018;2023-10-08T07:11:33;15.70;99.90
42187;DHT22;27858;51.414;0.018;2023-10-08T07:14:02;15.70;99.90
42187;DHT22;27858;51.414;0.018;2023-10-08T07:16:33;15.80;99.90
42187;DHT22;27858;51.414;0.018;2023-10-08T07:19:03;15.80;99.90
42187;DHT22;27858;51.414;0.018;2023-10-08T07:21:45;15.90;99.90
42187;DHT22;27858;51.414;0.018;2023-10-08T07:24:13;15.90;99.90
42187;DHT22;27858;51.414;0.018;2023-10-08T07:26:45;15.90;99.90
42187;DHT22;27858;51.414;0.018;2023-10-08T07:29:17;16.00;99.90
42187;DHT22;27858;51.414;0.018;2023-10-08T07:31:45;16.10;99.90
42187;DHT22;27858;51.414;0.018;2023-10-08T07:34:20;16.20;99.90
42187;DHT22;27858;51.414;0.018;2023-10-08T07:36:50;16.20;99.90
42187;DHT22;27858;51.414;0.018;2023-10-08T07:39:24;16.30;99.90
42187;DHT22;27858;51.414;0.018;2023-10-08T07:42:03;16.40;99.90
42187;DHT22;27858;51.414;0.018;2023-10-08T07:44:35;16.50;99.90
42187;DHT22;27858;51.414;0.018;2023-10-08T07:47:09;16.50;99.90
42187;DHT22;27858;51.414;0.018;2023-10-08T07:49:38;16.60;99.90
42187;DHT22;27858;51.414;0.018;2023-10-08T07:52:06;16.70;99.90
42187;DHT22;27858;51.414;0.018;2023-10-08T07:54:33;16.70;99.90
42187;DHT22;27858;51.414;0.018;2023-10-08T07:57:02;16.80;99.90
42187;DHT22;27858;51.414;0.018;2023-10-08T07:59:42;16.90;99.90
42187;DHT22;27858;51.414;0.018;2023-10-08T08:02:15;16.90;99.90
42187;DHT22;27858;51.414;0.018;2023-10-08T08:04:45;17.00;99.90
42187;DHT22;27858;51.414;0.018;2023-10-08T08:07:14;17.10;99.90
42187;DHT22;27858;51.414;0.018;2023-10-08T08:09:50;17.10;99.90
42187;DHT22;27858;51.414;0.018;2023-10-08T08:12:23;17.30;99.90
42187;DHT22;27858;51.414;0.018;2023-10-08T08:14:52;17.30;99.90
42187;DHT22;27858;51.414;0.018;2023-10-08T08:17:23;17.30;99.90
42187;DHT22;27858;51.414;0.018;2023-10-08T08:19:52;17.30;99.90
42187;DHT22;27858;51.414;0.018;2023-10-08T08:22:21;17.40;99.90
42187;DHT22;27858;51.414;0.018;2023-10-08T08:24:51;17.50;99.90
42187;DHT22;27858;51.414;0.018;2023-10-08T08:27:45;17.50;99.90
42187;DHT22;27858;51.414;0.018;2023-10-08T08:30:15;17.60;99.90
42187;DHT22;27858;51.414;0.018;2023-10-08T08:32:44;17.70;99.90
42187;DHT22;27858;51.414;0.018;2023-10-08T08:35:18;17.70;99.90
42187;DHT22;27858;51.414;0.018;2023-10-08T08:37:48;17.80;99.90
42187;DHT22;27858;51.414;0.018;2023-10-08T08:40:18;17.90;99.90
42187;DHT22;27858;51.414;0.018;2023-10-08T08:42:49;17.90;99.90
42187;DHT22;27858;51.414;0.018;2023-10-08T08:45:30;18.00;99.90
42187;DHT22;27858;51.414;0.018;2023-10-08T08:48:02;18.20;99.90
42187;DHT22;27858;51.414;0.018;2023-10-08T08:50:32;18.30;99.90
42187;DHT22;27858;51.414;0.018;2023-10-08T08:53:04;18.40;99.90
42187;DHT22;27858;51.414;0.018;2023-10-08T08:55:32;18.50;99.90
42187;DHT22;27858;51.414;0.018;2023-10-08T08:58:02;18.60;99.90
42187;DHT22;27858;51.414;0.018;2023-10-08T09:00:32;18.60;99.90
42187;DHT22;27858;51.414;0.018;2023-10-08T09:03:00;18.70;99.90
42187;DHT22;27858;51.414;0.018;2023-10-08T09:05:35;18.70;99.90
42187;DHT22;27858;51.414;0.018;2023-10-08T09:08:05;18.80;99.90
42187;DHT22;27858;51.414;0.018;2023-10-08T09:10:38;18.90;99.90
42187;DHT22;27858;51.414;0.018;2023-10-08T09:13:21;18.90;99.90
42187;DHT22;27858;51.414;0.018;2023-10-08T09:16:03;18.90;99.90
42187;DHT22;27858;51.414;0.018;2023-10-08T09:18:35;18.90;99.90
42187;DHT22;27858;51.414;0.018;2023-10-08T09:21:12;19.00;99.90
42187;DHT22;27858;51.414;0.018;2023-10-08T09:23:43;18.90;99.90
42187;DHT22;27858;51.414;0.018;2023-10-08T09:26:17;19.10;99.90
42187;DHT22;27858;51.414;0.018;2023-10-08T09:28:48;19.10;99.90
42187;DHT22;27858;51.414;0.018;2023-10-08T09:31:16;19.30;99.90
42187;DHT22;27858;51.414;0.018;2023-10-08T09:33:54;19.20;99.90
42187;DHT22;27858;51.414;0.018;2023-10-08T09:36:23;19.30;99.90
42187;DHT22;27858;51.414;0.018;2023-10-08T09:39:03;19.30;99.90
42187;DHT22;27858;51.414;0.018;2023-10-08T09:41:33;19.50;99.90
42187;DHT22;27858;51.414;0.018;2023-10-08T09:44:04;19.50;99.90
42187;DHT22;27858;51.414;0.018;2023-10-08T09:46:32;19.70;99.90
42187;DHT22;27858;51.414;0.018;2023-10-08T09:49:06;19.70;99.90
42187;DHT22;27858;51.414;0.018;2023-10-08T09:51:38;19.70;99.90
42187;DHT22;27858;51.414;0.018;2023-10-08T09:54:17;19.80;99.90
42187;DHT22;27858;51.414;0.018;2023-10-08T09:56:47;19.90;99.90
42187;DHT22;27858;51.414;0.018;2023-10-08T09:59:16;19.90;99.90
42187;DHT22;27858;51.414;0.018;2023-10-08T10:01:44;19.90;99.90
42187;DHT22;27858;51.414;0.018;2023-10-08T10:04:22;19.90;99.90
42187;DHT22;27858;51.414;0.018;2023-10-08T10:06:51;20.00;99.90
42187;DHT22;27858;51.414;0.018;2023-10-08T10:09:23;20.20;99.90
42187;DHT22;27858;51.414;0.018;2023-10-08T10:11:52;20.20;99.90
42187;DHT22;27858;51.414;0.018;2023-10-08T10:14:24;20.30;99.90
42187;DHT22;27858;51.414;0.018;2023-10-08T10:17:13;20.40;99.90
42187;DHT22;27858;51.414;0.018;2023-10-08T10:20:04;20.40;99.50
42187;DHT22;27858;51.414;0.018;2023-10-08T10:22:37;20.50;99.90
42187;DHT22;27858;51.414;0.018;2023-10-08T10:25:07;20.60;99.90
42187;DHT22;27858;51.414;0.018;2023-10-08T10:30:21;20.70;99.90
42187;DHT22;27858;51.414;0.018;2023-10-08T10:32:54;20.70;99.90
42187;DHT22;27858;51.414;0.018;2023-10-08T10:35:21;20.80;96.50
42187;DHT22;27858;51.414;0.018;2023-10-08T10:37:52;20.80;70.60
42187;DHT22;27858;51.414;0.018;2023-10-08T10:40:21;20.80;72.40
42187;DHT22;27858;51.414;0.018;2023-10-08T10:43:17;20.80;62.20
42187;DHT22;27858;51.414;0.018;2023-10-08T10:45:48;20.90;74.40
42187;DHT22;27858;51.414;0.018;2023-10-08T10:48:16;21.00;66.40
42187;DHT22;27858;51.414;0.018;2023-10-08T10:50:52;21.00;62.30
42187;DHT22;27858;51.414;0.018;2023-10-08T10:53:37;21.00;62.80
42187;DHT22;27858;51.414;0.018;2023-10-08T10:56:42;21.20;78.50
42187;DHT22;27858;51.414;0.018;2023-10-08T10:59:10;21.30;69.10
42187;DHT22;27858;51.414;0.018;2023-10-08T11:01:49;21.30;61.20
42187;DHT22;27858;51.414;0.018;2023-10-08T11:04:23;21.40;67.10
42187;DHT22;27858;51.414;0.018;2023-10-08T11:06:56;21.50;64.00
42187;DHT22;27858;51.414;0.018;2023-10-08T11:09:25;21.60;54.20
42187;DHT22;27858;51.414;0.018;2023-10-08T11:12:18;21.70;55.90
42187;DHT22;27858;51.414;0.018;2023-10-08T11:14:50;21.80;38.40
42187;DHT22;27858;51.414;0.018;2023-10-08T11:17:25;22.00;40.30
42187;DHT22;27858;51.414;0.018;2023-10-08T11:19:53;22.10;8.10
42187;DHT22;27858;51.414;0.018;2023-10-08T11:22:41;22.10;1.00
42187;DHT22;27858;51.414;0.018;2023-10-08T11:25:25;22.20;1.00
42187;DHT22;27858;51.414;0.018;2023-10-08T11:28:00;22.30;1.00
42187;DHT22;27858;51.414;0.018;2023-10-08T11:30:36;22.40;1.00
42187;DHT22;27858;51.414;0.018;2023-10-08T11:33:05;22.50;1.00
42187;DHT22;27858;51.414;0.018;2023-10-08T11:35:33;22.60;1.00
42187;DHT22;27858;51.414;0.018;2023-10-08T11:38:01;22.70;1.00
42187;DHT22;27858;51.414;0.018;2023-10-08T11:40:29;22.70;1.00
42187;DHT22;27858;51.414;0.018;2023-10-08T11:42:58;22.80;1.00
42187;DHT22;27858;51.414;0.018;2023-10-08T11:45:30;22.70;1.00
42187;DHT22;27858;51.414;0.018;2023-10-08T11:48:16;22.80;1.00
42187;DHT22;27858;51.414;0.018;2023-10-08T11:50:52;22.90;1.00
42187;DHT22;27858;51.414;0.018;2023-10-08T11:53:19;22.90;1.00
42187;DHT22;27858;51.414;0.018;2023-10-08T11:55:46;22.90;1.00
42187;DHT22;27858;51.414;0.018;2023-10-08T11:58:14;23.00;1.00
42187;DHT22;27858;51.414;0.018;2023-10-08T12:00:44;23.10;1.00
42187;DHT22;27858;51.414;0.018;2023-10-08T12:03:14;23.20;1.00
42187;DHT22;27858;51.414;0.018;2023-10-08T12:05:47;23.20;1.00
42187;DHT22;27858;51.414;0.018;2023-10-08T12:08:18;23.20;1.00
42187;DHT22;27858;51.414;0.018;2023-10-08T12:10:47;23.40;1.00
42187;DHT22;27858;51.414;0.018;2023-10-08T12:13:15;23.40;1.00
42187;DHT22;27858;51.414;0.018;2023-10-08T12:15:57;23.40;1.00
42187;DHT22;27858;51.414;0.018;2023-10-08T12:18:41;23.50;1.00
42187;DHT22;27858;51.414;0.018;2023-10-08T12:21:10;23.30;1.00
42187;DHT22;27858;51.414;0.018;2023-10-08T12:23:38;23.40;1.00
42187;DHT22;27858;51.414;0.018;2023-10-08T12:26:05;23.30;1.00
42187;DHT22;27858;51.414;0.018;2023-10-08T12:28:36;23.30;1.00
42187;DHT22;27858;51.414;0.018;2023-10-08T12:31:03;23.40;1.00
42187;DHT22;27858;51.414;0.018;2023-10-08T12:33:31;23.50;1.00
42187;DHT22;27858;51.414;0.018;2023-10-08T12:35:59;23.60;1.00
42187;DHT22;27858;51.414;0.018;2023-10-08T12:38:39;23.70;1.00
42187;DHT22;27858;51.414;0.018;2023-10-08T12:41:11;23.70;1.00
42187;DHT22;27858;51.414;0.018;2023-10-08T12:43:43;23.60;1.00
42187;DHT22;27858;51.414;0.018;2023-10-08T12:46:13;23.60;1.00
42187;DHT22;27858;51.414;0.018;2023-10-08T12:48:45;23.70;1.00
42187;DHT22;27858;51.414;0.018;2023-10-08T12:51:21;23.90;1.00
42187;DHT22;27858;51.414;0.018;2023-10-08T12:53:54;23.90;1.00
42187;DHT22;27858;51.414;0.018;2023-10-08T12:56:33;24.00;1.00
42187;DHT22;27858;51.414;0.018;2023-10-08T12:59:14;24.10;1.00
42187;DHT22;27858;51.414;0.018;2023-10-08T13:01:48;24.20;1.00
42187;DHT22;27858;51.414;0.018;2023-10-08T13:04:18;24.10;99.90
42187;DHT22;27858;51.414;0.018;2023-10-08T13:06:54;23.90;99.90
42187;DHT22;27858;51.414;0.018;2023-10-08T13:09:29;23.80;1.00
42187;DHT22;27858;51.414;0.018;2023-10-08T13:12:04;23.80;1.00
42187;DHT22;27858;51.414;0.018;2023-10-08T13:14:31;24.00;1.00
42187;DHT22;27858;51.414;0.018;2023-10-08T13:17:02;24.00;1.00
42187;DHT22;27858;51.414;0.018;2023-10-08T13:19:30;24.10;1.00
42187;DHT22;27858;51.414;0.018;2023-10-08T13:22:01;24.20;1.00
42187;DHT22;27858;51.414;0.018;2023-10-08T13:24:33;24.20;1.00
42187;DHT22;27858;51.414;0.018;2023-10-08T13:27:02;24.30;1.00
42187;DHT22;27858;51.414;0.018;2023-10-08T13:29:29;24.40;1.00
42187;DHT22;27858;51.414;0.018;2023-10-08T13:32:00;24.50;1.00
42187;DHT22;27858;51.414;0.018;2023-10-08T13:34:27;24.60;99.90
42187;DHT22;27858;51.414;0.018;2023-10-08T13:36:54;25.00;99.90
42187;DHT22;27858;51.414;0.018;2023-10-08T13:39:23;25.00;99.90
42187;DHT22;27858;51.414;0.018;2023-10-08T13:41:50;25.30;99.90
42187;DHT22;27858;51.414;0.018;2023-10-08T13:44:19;25.40;99.90
42187;DHT22;27858;51.414;0.018;2023-10-08T13:46:57;25.60;99.90
42187;DHT22;27858;51.414;0.018;2023-10-08T13:49:26;25.80;99.90
42187;DHT22;27858;51.414;0.018;2023-10-08T13:51:53;25.70;99.90
